createdAt,value
2019-03-17T00:01:13.005Z,10.20
2019-03-17T00:11:14.098Z,10.21
2019-03-17T00:21:12.935Z,10.21
2019-03-17T00:31:23.303Z,10.16
2019-03-17T00:41:12.947Z,10.09
2019-03-17T00:51:13.970Z,10.10
2019-03-17T01:01:12.929Z,10.09
2019-03-17T01:11:12.947Z,10.02
2019-03-17T01:21:12.954Z,10.00
2019-03-17T01:31:12.785Z,9.81
2019-03-17T01:41:13.860Z,9.64
2019-03-17T01:51:12.887Z,9.66
2019-03-17T02:01:20.174Z,9.67
2019-03-17T02:11:12.919Z,9.66
2019-03-17T02:41:14.681Z,9.53
2019-03-17T02:51:14.149Z,9.47
2019-03-17T03:01:14.189Z,9.36
2019-03-17T03:11:14.021Z,9.26
2019-03-17T03:21:14.173Z,9.20
2019-03-17T03:31:14.139Z,9.11
2019-03-17T03:41:14.168Z,9.04
2019-03-17T03:51:14.179Z,8.87
2019-03-17T04:01:14.247Z,8.75
2019-03-17T04:11:14.143Z,8.68
2019-03-17T04:21:14.142Z,8.78
2019-03-17T04:31:14.684Z,8.71
2019-03-17T04:41:14.139Z,8.36
2019-03-17T04:51:14.152Z,8.02
2019-03-17T05:01:14.220Z,7.98
2019-03-17T05:11:14.207Z,8.07
2019-03-17T05:21:14.234Z,8.08
2019-03-17T05:31:14.176Z,7.90
2019-03-17T05:41:14.184Z,7.70
2019-03-17T05:51:14.116Z,7.58
2019-03-17T06:01:14.140Z,7.48
2019-03-17T06:11:14.172Z,7.30
2019-03-17T06:21:14.096Z,7.32
2019-03-17T06:31:14.137Z,7.32
2019-03-17T06:41:14.181Z,7.26
2019-03-17T06:51:14.142Z,7.17
2019-03-17T07:01:14.173Z,6.73
2019-03-17T07:11:15.151Z,6.02
2019-03-17T07:21:14.146Z,5.94
2019-03-17T07:31:15.149Z,5.85
2019-03-17T07:41:15.289Z,5.82
2019-03-17T07:51:14.117Z,5.85
2019-03-17T08:01:14.107Z,5.97
2019-03-17T08:11:14.595Z,6.14
2019-03-17T08:21:14.146Z,6.23
2019-03-17T08:31:14.157Z,6.33
2019-03-17T08:41:14.098Z,6.51
2019-03-17T08:51:14.172Z,6.70
2019-03-17T09:01:14.123Z,6.99
2019-03-17T09:11:14.111Z,7.17
2019-03-17T09:21:14.103Z,7.51
2019-03-17T09:31:14.086Z,7.82
2019-03-17T09:41:14.148Z,7.57
2019-03-17T09:51:14.128Z,7.48
2019-03-17T10:01:14.073Z,7.22
2019-03-17T10:11:14.085Z,7.34
2019-03-17T10:21:13.961Z,8.46
2019-03-17T10:31:14.291Z,10.29
2019-03-17T10:41:14.117Z,8.76
2019-03-17T10:51:14.080Z,9.19
2019-03-17T11:01:14.131Z,8.69
2019-03-17T11:11:14.760Z,9.49
2019-03-17T11:21:14.106Z,9.20
2019-03-17T11:31:15.061Z,9.77
2019-03-17T11:41:14.029Z,10.52
2019-03-17T11:51:14.214Z,10.94
2019-03-17T12:01:17.890Z,11.59
2019-03-17T12:11:14.196Z,11.92
2019-03-17T12:21:13.996Z,12.17
2019-03-17T12:31:14.120Z,9.94
2019-03-17T12:41:14.143Z,10.13
2019-03-17T12:51:14.108Z,9.80
2019-03-17T13:01:14.131Z,8.88
2019-03-17T13:11:14.047Z,11.23
2019-03-17T13:21:14.097Z,12.06
2019-03-17T13:31:14.133Z,10.91
2019-03-17T13:41:14.124Z,10.16
2019-03-17T13:51:14.064Z,9.24
2019-03-17T14:01:14.079Z,9.01
2019-03-17T14:11:14.123Z,8.50
2019-03-17T14:21:14.143Z,8.19
2019-03-17T14:31:14.145Z,6.85
2019-03-17T14:41:14.124Z,6.76
2019-03-17T14:51:14.795Z,7.43
2019-03-17T15:01:14.108Z,7.16
2019-03-17T15:11:14.162Z,7.22
2019-03-17T15:21:14.184Z,7.00
2019-03-17T15:31:13.984Z,6.88
2019-03-17T15:41:18.776Z,6.67
2019-03-17T15:51:20.414Z,6.64
2019-03-17T16:01:14.144Z,6.13
2019-03-17T16:11:14.209Z,5.10
2019-03-17T16:21:14.036Z,4.72
2019-03-17T16:31:14.098Z,4.62
2019-03-17T16:41:14.046Z,4.47
2019-03-17T16:51:13.985Z,4.30
2019-03-17T17:01:14.079Z,4.29
2019-03-17T17:11:14.031Z,4.25
2019-03-17T17:21:14.060Z,4.33
2019-03-17T17:31:14.052Z,3.48
2019-03-17T17:41:14.017Z,2.60
2019-03-17T17:51:14.118Z,2.50
2019-03-17T18:01:14.148Z,2.25
2019-03-17T18:11:14.008Z,2.17
2019-03-17T18:21:14.058Z,2.23
2019-03-17T18:31:14.066Z,2.38
2019-03-17T18:41:14.016Z,2.43
2019-03-17T18:51:14.018Z,2.58
2019-03-17T19:01:14.009Z,2.71
2019-03-17T19:11:14.032Z,2.63
2019-03-17T19:21:13.962Z,2.71
2019-03-17T19:31:13.949Z,2.72
2019-03-17T19:41:14.016Z,2.86
2019-03-17T19:51:14.010Z,2.88
2019-03-17T20:01:14.839Z,2.88
2019-03-17T20:11:14.063Z,2.92
2019-03-17T20:21:14.036Z,2.96
2019-03-17T20:31:14.016Z,3.07
2019-03-17T20:41:13.996Z,3.20
2019-03-17T20:51:14.023Z,3.26
2019-03-17T21:01:13.954Z,3.30
2019-03-17T21:11:13.999Z,3.17
2019-03-17T21:21:14.030Z,3.08
2019-03-17T21:31:14.020Z,3.30
2019-03-17T21:41:14.041Z,3.29
2019-03-17T21:51:13.942Z,3.27
2019-03-17T22:01:14.044Z,3.32
2019-03-17T22:11:14.029Z,3.22
2019-03-17T22:21:14.607Z,3.07
2019-03-17T22:31:13.984Z,2.99
2019-03-17T22:41:14.676Z,3.02
2019-03-17T22:51:14.009Z,3.21
2019-03-17T23:01:13.978Z,3.27
2019-03-17T23:11:14.060Z,3.25
2019-03-17T23:21:13.936Z,3.15
2019-03-17T23:31:13.947Z,3.06
2019-03-17T23:41:13.986Z,3.05
2019-03-17T23:51:14.008Z,3.08
